createdAt,value
2023-04-02T00:02:30.109Z,93048.13
2023-04-02T00:07:33.012Z,93053.38
2023-04-02T00:12:34.513Z,93047.59
2023-04-02T00:17:36.005Z,93043.34
2023-04-02T00:22:44.261Z,93053.50
2023-04-02T00:27:46.185Z,93051.03
2023-04-02T00:32:47.884Z,93053.28
2023-04-02T00:37:51.223Z,93062.09
2023-04-02T00:42:54.314Z,93053.66
2023-04-02T00:47:56.933Z,93055.59
2023-04-02T00:53:04.391Z,93048.47
2023-04-02T00:58:19.000Z,93058.81
2023-04-02T01:03:33.105Z,93068.31
2023-04-02T01:08:46.518Z,93070.56
2023-04-02T01:13:58.183Z,93070.56
2023-04-02T01:19:08.061Z,93066.41
2023-04-02T01:24:12.743Z,93065.25
2023-04-02T01:29:18.503Z,93069.28
2023-04-02T01:34:25.127Z,93075.34
2023-04-02T01:39:41.127Z,93077.16
2023-04-02T01:44:49.278Z,93079.59
2023-04-02T01:49:54.941Z,93087.50
2023-04-02T01:54:56.517Z,93084.34
2023-04-02T02:00:02.052Z,93089.94
2023-04-02T02:05:04.333Z,93100.66
2023-04-02T02:10:07.015Z,93104.03
2023-04-02T02:15:15.594Z,93100.75
2023-04-02T02:20:17.734Z,93098.34
2023-04-02T02:25:22.711Z,93097.06
2023-04-02T02:30:30.422Z,93102.41
2023-04-02T02:35:34.979Z,93103.22
2023-04-02T02:40:40.611Z,93104.47
2023-04-02T02:45:45.868Z,93112.78
2023-04-02T02:50:47.843Z,93109.63
2023-04-02T02:55:52.655Z,93121.28
2023-04-02T03:00:55.658Z,93114.69
2023-04-02T03:06:02.211Z,93117.19
2023-04-02T03:11:08.825Z,93134.31
2023-04-02T03:16:16.332Z,93138.38
2023-04-02T03:21:26.043Z,93144.16
2023-04-02T03:26:33.899Z,93146.91
2023-04-02T03:31:39.766Z,93145.56
2023-04-02T03:36:47.537Z,93150.63
2023-04-02T03:41:51.782Z,93148.31
2023-04-02T03:52:26.831Z,93153.44
2023-04-02T03:57:33.292Z,93151.63
2023-04-02T04:02:42.147Z,93161.84
2023-04-02T04:07:44.414Z,93170.28
2023-04-02T04:12:48.243Z,93175.38
2023-04-02T04:17:58.937Z,93184.88
2023-04-02T04:23:10.542Z,93184.63
2023-04-02T04:28:19.722Z,93197.50
2023-04-02T04:33:26.006Z,93190.66
2023-04-02T04:38:32.410Z,93195.88
2023-04-02T04:43:43.930Z,93215.41
2023-04-02T04:48:54.298Z,93222.53
2023-04-02T04:53:55.880Z,93218.56
2023-04-02T04:59:02.949Z,93224.06
2023-04-02T05:04:14.580Z,93224.59
2023-04-02T05:09:21.840Z,93231.56
2023-04-02T05:14:31.198Z,93241.44
2023-04-02T05:19:39.516Z,93255.41
2023-04-02T05:24:51.279Z,93250.53
2023-04-02T05:29:59.864Z,93262.22
2023-04-02T05:35:03.511Z,93272.16
2023-04-02T05:40:13.486Z,93270.31
2023-04-02T05:45:23.164Z,93278.75
2023-04-02T05:50:28.376Z,93284.44
2023-04-02T05:55:39.452Z,93291.13
2023-04-02T06:01:02.742Z,93295.44
2023-04-02T06:06:14.801Z,93304.44
2023-04-02T06:11:22.488Z,93302.72
2023-04-02T06:16:26.368Z,93303.63
2023-04-02T06:21:29.171Z,93315.81
2023-04-02T06:26:34.542Z,93320.91
2023-04-02T06:31:41.978Z,93324.50
2023-04-02T06:36:46.302Z,93328.31
2023-04-02T06:41:56.133Z,93335.38
2023-04-02T06:47:00.204Z,93351.03
2023-04-02T06:52:06.221Z,93357.78
2023-04-02T06:57:08.851Z,93366.84
2023-04-02T07:02:25.527Z,93375.88
2023-04-02T07:07:28.493Z,93383.94
2023-04-02T07:12:30.013Z,93385.91
2023-04-02T07:17:31.518Z,93388.47
2023-04-02T07:22:34.316Z,93390.13
2023-04-02T07:27:35.825Z,93391.44
2023-04-02T07:32:37.294Z,93401.22
2023-04-02T07:37:41.205Z,93400.47
2023-04-02T07:42:42.748Z,93404.81
2023-04-02T07:47:44.521Z,93409.81
2023-04-02T07:52:47.445Z,93406.34
2023-04-02T07:57:51.097Z,93419.84
2023-04-02T08:02:53.191Z,93427.72
2023-04-02T08:07:57.016Z,93441.75
2023-04-02T08:12:58.572Z,93441.38
2023-04-02T08:18:00.047Z,93441.06
2023-04-02T08:23:03.613Z,93442.22
2023-04-02T08:28:05.102Z,93451.47
2023-04-02T08:33:07.055Z,93461.28
2023-04-02T08:38:13.316Z,93469.13
2023-04-02T08:43:43.932Z,93467.41
2023-04-02T08:48:51.237Z,93467.69
2023-04-02T08:53:59.734Z,93467.88
2023-04-02T08:59:08.092Z,93477.50
2023-04-02T09:04:17.153Z,93477.31
2023-04-02T09:09:21.619Z,93483.41
2023-04-02T09:14:29.468Z,93488.22
2023-04-02T09:19:36.007Z,93486.06
2023-04-02T09:24:38.791Z,93496.28
2023-04-02T09:29:45.284Z,93503.13
2023-04-02T09:34:46.861Z,93512.50
2023-04-02T09:39:49.760Z,93517.38
2023-04-02T09:44:52.200Z,93522.59
2023-04-02T09:49:53.706Z,93524.91
2023-04-02T09:55:18.855Z,93531.75
2023-04-02T10:00:31.263Z,93537.19
2023-04-02T10:05:40.052Z,93545.00
2023-04-02T10:10:48.887Z,93543.78
2023-04-02T10:15:57.155Z,93550.19
2023-04-02T10:21:02.220Z,93554.69
2023-04-02T10:26:22.067Z,93558.59
2023-04-02T10:31:28.461Z,93549.31
2023-04-02T10:36:48.219Z,93547.63
2023-04-02T10:41:56.253Z,93561.09
2023-04-02T10:47:09.111Z,93563.28
2023-04-02T10:52:14.659Z,93578.56
2023-04-02T10:57:30.634Z,93580.06
2023-04-02T11:02:37.693Z,93582.81
2023-04-02T11:07:52.969Z,93588.59
2023-04-02T11:13:02.189Z,93592.75
2023-04-02T11:18:04.002Z,93597.16
2023-04-02T11:23:10.621Z,93605.97
2023-04-02T11:28:25.637Z,93610.59
2023-04-02T11:33:43.404Z,93619.00
2023-04-02T11:38:52.507Z,93614.25
2023-04-02T11:44:05.095Z,93622.16
2023-04-02T11:49:35.286Z,93627.44
2023-04-02T11:54:37.832Z,93629.47
2023-04-02T11:59:50.317Z,93640.63
2023-04-02T12:05:04.603Z,93636.66
2023-04-02T12:10:17.086Z,93639.84
2023-04-02T12:15:42.323Z,93650.53
2023-04-02T12:20:49.870Z,93647.41
2023-04-02T12:25:56.459Z,93644.16
2023-04-02T12:31:13.096Z,93657.72
2023-04-02T12:36:20.036Z,93663.19
2023-04-02T12:41:24.451Z,93665.88
2023-04-02T12:46:28.541Z,93673.50
2023-04-02T12:51:30.234Z,93675.91
2023-04-02T12:56:31.848Z,93663.31
2023-04-02T13:01:34.703Z,93667.22
2023-04-02T13:06:37.027Z,93663.28
2023-04-02T13:11:41.229Z,93662.38
2023-04-02T13:16:44.260Z,93666.69
2023-04-02T13:21:45.889Z,93659.63
2023-04-02T13:26:48.553Z,93664.53
2023-04-02T13:31:53.343Z,93671.94
2023-04-02T13:36:55.273Z,93671.09
2023-04-02T13:41:58.600Z,93681.22
2023-04-02T13:47:01.836Z,93686.56
2023-04-02T13:52:03.967Z,93676.91
2023-04-02T13:57:05.886Z,93679.22
2023-04-02T14:02:13.783Z,93681.91
2023-04-02T14:07:24.586Z,93691.13
2023-04-02T14:12:35.814Z,93695.03
2023-04-02T14:17:52.640Z,93696.28
2023-04-02T14:23:10.945Z,93701.00
2023-04-02T14:28:20.250Z,93702.94
2023-04-02T14:33:34.921Z,93708.38
2023-04-02T14:38:42.070Z,93702.69
2023-04-02T14:43:48.894Z,93709.63
2023-04-02T14:48:56.800Z,93706.94
2023-04-02T14:54:08.468Z,93713.28
2023-04-02T14:59:23.366Z,93717.00
2023-04-02T15:04:32.145Z,93713.28
2023-04-02T15:09:37.096Z,93720.66
2023-04-02T15:14:43.486Z,93722.53
2023-04-02T15:19:46.300Z,93734.13
2023-04-02T15:24:58.171Z,93738.16
2023-04-02T15:30:06.452Z,93758.53
2023-04-02T15:35:30.068Z,93750.19
2023-04-02T15:40:53.441Z,93748.00
2023-04-02T15:46:10.437Z,93759.53
2023-04-02T15:51:25.187Z,93768.22
2023-04-02T15:56:34.625Z,93771.06
2023-04-02T16:01:44.171Z,93784.91
2023-04-02T16:07:01.191Z,93807.63
2023-04-02T16:12:14.825Z,93808.63
2023-04-02T16:17:25.271Z,93826.81
2023-04-02T16:22:30.412Z,93831.50
2023-04-02T16:27:35.233Z,93825.97
2023-04-02T16:32:50.149Z,93842.56
2023-04-02T16:37:58.100Z,93847.69
2023-04-02T16:43:12.256Z,93872.41
2023-04-02T16:48:20.451Z,93862.75
2023-04-02T16:53:30.859Z,93879.75
2023-04-02T16:58:43.855Z,93886.34
2023-04-02T17:04:00.712Z,93899.91
2023-04-02T17:09:13.739Z,93907.97
2023-04-02T17:14:24.602Z,93912.22
2023-04-02T17:19:27.322Z,93926.25
2023-04-02T17:24:35.411Z,93936.41
2023-04-02T17:29:40.496Z,93939.56
2023-04-02T17:34:41.977Z,93949.03
2023-04-02T17:39:52.180Z,93951.41
2023-04-02T17:45:02.873Z,93969.81
2023-04-02T17:50:29.116Z,93977.91
2023-04-02T17:55:41.858Z,93979.41
2023-04-02T18:00:57.679Z,93990.78
2023-04-02T18:06:03.481Z,94011.00
2023-04-02T18:11:13.478Z,94021.75
2023-04-02T18:16:30.077Z,94021.63
2023-04-02T18:21:39.231Z,94047.31
2023-04-02T18:26:51.807Z,94050.66
2023-04-02T18:32:03.938Z,94070.38
2023-04-02T18:37:18.888Z,94065.00
2023-04-02T18:42:37.406Z,94066.78
2023-04-02T18:47:47.730Z,94068.06
2023-04-02T18:52:50.568Z,94085.53
2023-04-02T18:57:58.946Z,94097.38
2023-04-02T19:03:06.875Z,94098.34
2023-04-02T19:08:13.846Z,94126.47
2023-04-02T19:13:19.029Z,94136.97
2023-04-02T19:18:35.675Z,94149.41
2023-04-02T19:23:52.462Z,94139.25
2023-04-02T19:29:05.399Z,94162.19
2023-04-02T19:34:15.400Z,94165.13
2023-04-02T19:39:43.743Z,94174.13
2023-04-02T19:44:50.089Z,94189.94
2023-04-02T19:49:51.679Z,94188.00
2023-04-02T19:54:53.163Z,94193.34
2023-04-02T19:59:56.012Z,94206.75
2023-04-02T20:04:57.558Z,94204.81
2023-04-02T20:09:59.099Z,94210.06
2023-04-02T20:15:02.666Z,94217.31
2023-04-02T20:20:04.755Z,94217.59
2023-04-02T20:25:07.380Z,94217.88
2023-04-02T20:30:11.173Z,94223.75
2023-04-02T20:35:12.754Z,94229.94
2023-04-02T20:40:14.421Z,94246.44
2023-04-02T20:45:17.280Z,94240.50
2023-04-02T20:50:19.271Z,94257.63
2023-04-02T20:55:20.726Z,94261.09
2023-04-02T21:00:23.536Z,94268.09
2023-04-02T21:05:25.006Z,94269.28
2023-04-02T21:10:26.460Z,94272.75
2023-04-02T21:15:29.267Z,94266.94
2023-04-02T21:20:30.754Z,94264.72
2023-04-02T21:25:32.230Z,94272.38
2023-04-02T21:30:35.034Z,94283.00
2023-04-02T21:35:36.697Z,94284.69
2023-04-02T21:40:38.358Z,94274.91
2023-04-02T21:45:41.204Z,94286.09
2023-04-02T21:50:42.725Z,94276.59
2023-04-02T21:55:44.585Z,94286.28
2023-04-02T22:00:47.413Z,94289.50
2023-04-02T22:05:50.199Z,94294.66
2023-04-02T22:10:51.663Z,94297.66
2023-04-02T22:16:00.047Z,94300.13
2023-04-02T22:21:01.872Z,94300.00
2023-04-02T22:26:04.900Z,94321.13
2023-04-02T22:31:11.264Z,94323.31
2023-04-02T22:36:14.014Z,94328.72
2023-04-02T22:41:17.331Z,94334.84
2023-04-02T22:46:20.680Z,94324.88
2023-04-02T22:51:23.259Z,94322.44
2023-04-02T22:56:26.645Z,94325.44
2023-04-02T23:01:32.443Z,94333.63
2023-04-02T23:06:33.984Z,94328.22
2023-04-02T23:11:35.446Z,94328.88
2023-04-02T23:16:38.317Z,94326.81
2023-04-02T23:21:39.801Z,94329.66
2023-04-02T23:26:41.253Z,94332.50
2023-04-02T23:31:44.705Z,94327.94
2023-04-02T23:36:46.188Z,94324.38
2023-04-02T23:41:47.648Z,94327.88
2023-04-02T23:46:50.826Z,94326.09
2023-04-02T23:51:52.380Z,94321.06
2023-04-02T23:56:54.364Z,94324.84
